createdAt,value
2023-01-13T00:00:28.077Z,78.96
2023-01-13T00:04:29.647Z,79.90
2023-01-13T00:08:31.588Z,79.92
2023-01-13T00:12:33.136Z,79.76
2023-01-13T00:16:36.070Z,78.71
2023-01-13T00:20:37.590Z,79.61
2023-01-13T00:24:39.137Z,79.61
2023-01-13T00:28:40.678Z,78.95
2023-01-13T00:32:43.587Z,77.62
2023-01-13T00:36:45.141Z,77.26
2023-01-13T00:40:54.842Z,77.26
2023-01-13T00:44:56.412Z,77.11
2023-01-13T00:48:59.317Z,76.76
2023-01-13T00:53:01.013Z,76.71
2023-01-13T00:57:02.629Z,77.28
2023-01-13T01:01:05.459Z,76.55
2023-01-13T01:05:09.043Z,76.72
2023-01-13T01:09:12.915Z,76.53
2023-01-13T01:13:14.486Z,76.60
2023-01-13T01:17:16.016Z,75.86
2023-01-13T01:21:19.463Z,75.78
2023-01-13T01:25:21.030Z,76.02
2023-01-13T01:29:22.562Z,75.96
2023-01-13T01:33:24.386Z,75.59
2023-01-13T01:37:27.309Z,75.09
2023-01-13T01:41:30.297Z,75.47
2023-01-13T01:45:32.031Z,75.22
2023-01-13T01:49:35.164Z,76.22
2023-01-13T01:53:39.182Z,75.92
2023-01-13T01:57:43.095Z,76.10
2023-01-13T02:01:45.360Z,75.89
2023-01-13T02:05:46.994Z,76.95
2023-01-13T02:09:50.035Z,76.77
2023-01-13T02:13:51.686Z,77.41
2023-01-13T02:18:00.343Z,76.44
2023-01-13T02:22:13.792Z,76.59
2023-01-13T02:26:32.578Z,77.04
2023-01-13T02:30:40.859Z,76.11
2023-01-13T02:34:46.742Z,76.28
2023-01-13T02:38:50.825Z,75.52
2023-01-13T02:42:55.826Z,76.42
2023-01-13T02:47:02.161Z,76.02
2023-01-13T02:51:05.818Z,76.16
2023-01-13T02:55:10.581Z,76.23
2023-01-13T02:59:12.577Z,75.41
2023-01-13T03:03:15.332Z,75.52
2023-01-13T03:07:26.261Z,75.49
2023-01-13T03:11:33.311Z,75.27
2023-01-13T03:15:41.863Z,76.09
2023-01-13T03:19:49.978Z,76.22
2023-01-13T03:23:53.732Z,75.57
2023-01-13T03:27:57.517Z,75.97
2023-01-13T03:32:01.458Z,75.95
2023-01-13T03:36:07.999Z,76.01
2023-01-13T03:40:12.275Z,75.14
2023-01-13T03:44:17.140Z,75.42
2023-01-13T03:48:20.214Z,75.43
2023-01-13T03:52:26.216Z,75.48
2023-01-13T03:56:29.875Z,74.43
2023-01-13T04:00:32.368Z,74.63
2023-01-13T04:04:35.620Z,74.02
2023-01-13T04:08:40.081Z,74.99
2023-01-13T04:12:44.914Z,74.66
2023-01-13T04:16:47.481Z,74.52
2023-01-13T04:20:50.198Z,74.59
2023-01-13T04:24:52.922Z,74.86
2023-01-13T04:28:54.295Z,74.07
2023-01-13T04:32:55.741Z,73.52
2023-01-13T04:36:57.138Z,74.77
2023-01-13T04:40:59.887Z,74.49
2023-01-13T04:45:01.280Z,74.98
2023-01-13T04:49:02.746Z,73.39
2023-01-13T04:53:04.130Z,73.51
2023-01-13T04:57:06.950Z,73.74
2023-01-13T05:01:08.534Z,74.45
2023-01-13T05:05:10.028Z,73.18
2023-01-13T05:09:11.508Z,72.98
2023-01-13T05:13:14.272Z,73.80
2023-01-13T05:17:18.724Z,72.60
2023-01-13T05:21:20.114Z,73.54
2023-01-13T05:25:21.620Z,74.39
2023-01-13T05:29:24.403Z,73.30
2023-01-13T05:33:25.813Z,73.57
2023-01-13T05:37:27.246Z,73.30
2023-01-13T05:41:28.606Z,73.23
2023-01-13T05:45:31.706Z,72.04
2023-01-13T05:49:33.205Z,73.27
2023-01-13T05:53:34.817Z,72.56
2023-01-13T05:57:36.280Z,71.72
2023-01-13T06:01:39.034Z,70.46
2023-01-13T06:05:40.425Z,71.10
2023-01-13T06:09:41.866Z,71.18
2023-01-13T06:13:43.259Z,70.05
2023-01-13T06:17:46.088Z,71.25
2023-01-13T06:21:47.462Z,70.40
2023-01-13T06:25:52.730Z,71.27
2023-01-13T06:29:54.107Z,70.35
2023-01-13T06:33:59.388Z,71.72
2023-01-13T06:38:02.814Z,69.64
2023-01-13T06:42:04.400Z,70.64
2023-01-13T06:46:06.016Z,71.04
2023-01-13T06:50:09.667Z,70.87
2023-01-13T06:54:11.074Z,71.82
2023-01-13T06:58:12.532Z,71.75
2023-01-13T07:02:14.061Z,70.78
2023-01-13T07:06:16.857Z,70.64
2023-01-13T07:10:18.310Z,70.49
2023-01-13T07:14:19.730Z,70.50
2023-01-13T07:18:21.143Z,70.37
2023-01-13T07:22:23.914Z,70.86
2023-01-13T07:26:25.302Z,70.84
2023-01-13T07:30:26.776Z,70.28
2023-01-13T07:34:28.160Z,70.23
2023-01-13T07:38:31.477Z,70.04
2023-01-13T07:42:32.841Z,70.43
2023-01-13T07:46:34.201Z,70.06
2023-01-13T07:50:35.602Z,70.30
2023-01-13T07:54:40.928Z,70.90
2023-01-13T07:58:42.564Z,70.11
2023-01-13T08:02:43.989Z,69.93
2023-01-13T08:06:45.400Z,70.34
2023-01-13T08:10:48.143Z,70.37
2023-01-13T08:14:49.525Z,71.02
2023-01-13T08:18:50.926Z,70.38
2023-01-13T08:22:55.841Z,70.55
2023-01-13T08:26:58.590Z,70.90
2023-01-13T08:31:00.671Z,70.42
2023-01-13T08:35:02.114Z,70.74
2023-01-13T08:39:03.571Z,70.04
2023-01-13T08:43:06.320Z,70.02
2023-01-13T08:47:07.776Z,69.75
2023-01-13T08:51:09.703Z,69.90
2023-01-13T08:55:11.383Z,70.09
2023-01-13T08:59:14.609Z,70.24
2023-01-13T09:03:15.989Z,70.27
2023-01-13T09:07:17.774Z,70.36
2023-01-13T09:11:20.599Z,70.75
2023-01-13T09:15:23.492Z,70.72
2023-01-13T09:19:25.201Z,71.19
2023-01-13T09:23:26.609Z,71.01
2023-01-13T09:27:27.987Z,71.03
2023-01-13T09:31:30.804Z,70.73
2023-01-13T09:35:32.224Z,71.30
2023-01-13T09:39:33.985Z,71.71
2023-01-13T09:43:38.176Z,72.03
2023-01-13T09:47:44.559Z,73.39
2023-01-13T09:51:49.156Z,74.23
2023-01-13T09:55:50.559Z,73.48
2023-01-13T09:59:52.038Z,73.26
2023-01-13T10:03:54.793Z,74.46
2023-01-13T10:07:58.710Z,73.91
2023-01-13T10:12:01.329Z,73.93
2023-01-13T10:16:08.049Z,73.92
2023-01-13T10:20:17.010Z,72.59
2023-01-13T10:24:22.918Z,71.89
2023-01-13T10:28:24.323Z,71.34
2023-01-13T10:32:25.711Z,71.54
2023-01-13T10:36:28.448Z,71.15
2023-01-13T10:40:29.847Z,71.15
2023-01-13T10:44:31.230Z,71.24
2023-01-13T10:48:37.455Z,70.48
2023-01-13T10:52:41.403Z,70.72
2023-01-13T10:56:43.706Z,70.36
2023-01-13T11:00:45.254Z,70.16
2023-01-13T11:04:58.141Z,70.63
2023-01-13T11:09:00.959Z,70.25
2023-01-13T11:13:05.310Z,70.34
2023-01-13T11:17:14.663Z,70.68
2023-01-13T11:21:21.224Z,73.35
2023-01-13T11:25:26.373Z,75.27
2023-01-13T11:29:30.119Z,77.54
2023-01-13T11:33:37.942Z,77.59
2023-01-13T11:37:41.865Z,79.02
2023-01-13T11:41:46.640Z,81.14
2023-01-13T11:45:50.625Z,81.85
2023-01-13T11:49:52.207Z,83.89
2023-01-13T11:54:04.283Z,83.46
2023-01-13T11:58:13.871Z,83.05
2023-01-13T12:02:21.932Z,83.27
2023-01-13T12:06:29.292Z,83.79
2023-01-13T12:10:41.267Z,83.65
2023-01-13T12:14:51.307Z,83.22
2023-01-13T12:19:00.822Z,82.95
2023-01-13T12:23:03.915Z,83.37
2023-01-13T12:27:10.623Z,83.49
2023-01-13T12:31:13.676Z,82.84
2023-01-13T12:35:23.038Z,83.05
2023-01-13T12:39:28.797Z,81.87
2023-01-13T12:43:31.236Z,81.13
2023-01-13T12:47:35.290Z,82.36
2023-01-13T12:51:37.811Z,82.80
2023-01-13T12:55:39.179Z,82.88
2023-01-13T12:59:40.629Z,83.54
2023-01-13T13:04:03.382Z,82.67
2023-01-13T13:08:07.733Z,83.35
2023-01-13T13:12:24.001Z,82.98
2023-01-13T13:16:35.708Z,83.21
2023-01-13T13:20:55.512Z,83.75
2023-01-13T13:25:11.771Z,83.34
2023-01-13T13:29:36.928Z,83.84
2023-01-13T13:33:47.877Z,83.42
2023-01-13T13:37:55.513Z,84.04
2023-01-13T13:42:02.405Z,84.10
2023-01-13T13:46:16.637Z,83.96
2023-01-13T13:50:19.428Z,82.98
2023-01-13T13:54:22.506Z,83.33
2023-01-13T13:58:24.312Z,82.60
2023-01-13T14:02:28.206Z,82.86
2023-01-13T14:06:29.594Z,83.62
2023-01-13T14:10:33.664Z,83.96
2023-01-13T14:14:35.116Z,83.36
2023-01-13T14:18:42.509Z,83.97
2023-01-13T14:22:46.025Z,83.37
2023-01-13T14:26:49.133Z,84.10
2023-01-13T14:30:51.213Z,84.64
2023-01-13T14:34:52.710Z,84.30
2023-01-13T14:39:08.948Z,85.03
2023-01-13T14:43:12.982Z,84.85
2023-01-13T14:47:19.430Z,84.23
2023-01-13T14:51:22.622Z,83.38
2023-01-13T14:55:27.895Z,84.24
2023-01-13T14:59:41.091Z,84.11
2023-01-13T15:03:42.645Z,82.65
2023-01-13T15:07:48.660Z,83.47
2023-01-13T15:11:50.034Z,83.49
2023-01-13T15:15:53.727Z,83.52
2023-01-13T15:19:55.163Z,84.10
2023-01-13T15:23:56.505Z,84.11
2023-01-13T15:27:57.939Z,81.90
2023-01-13T15:32:00.652Z,81.77
2023-01-13T15:36:02.046Z,82.46
2023-01-13T15:40:03.694Z,82.61
2023-01-13T15:44:05.175Z,84.05
2023-01-13T15:48:07.899Z,84.11
2023-01-13T15:52:16.887Z,83.34
2023-01-13T15:56:22.090Z,85.42
2023-01-13T16:00:23.601Z,86.57
2023-01-13T16:04:28.167Z,84.95
2023-01-13T16:08:29.544Z,82.42
2023-01-13T16:12:30.992Z,82.71
2023-01-13T16:16:32.521Z,82.61
2023-01-13T16:20:35.329Z,81.98
2023-01-13T16:24:36.742Z,81.66
2023-01-13T16:28:38.120Z,81.99
2023-01-13T16:32:39.516Z,80.95
2023-01-13T16:36:42.263Z,81.46
2023-01-13T16:40:43.951Z,80.47
2023-01-13T16:44:45.305Z,81.12
2023-01-13T16:48:46.804Z,80.66
2023-01-13T16:52:49.565Z,79.92
2023-01-13T16:56:51.189Z,79.38
2023-01-13T17:00:52.638Z,78.32
2023-01-13T17:04:54.000Z,78.82
2023-01-13T17:09:02.605Z,78.36
2023-01-13T17:13:14.720Z,78.02
2023-01-13T17:17:20.356Z,77.29
2023-01-13T17:21:21.761Z,77.74
2023-01-13T17:25:24.551Z,77.00
2023-01-13T17:29:25.955Z,77.20
2023-01-13T17:33:27.341Z,77.12
2023-01-13T17:37:28.745Z,76.41
2023-01-13T17:41:31.524Z,75.62
2023-01-13T17:45:32.923Z,76.07
2023-01-13T17:49:34.375Z,76.25
2023-01-13T17:53:35.767Z,75.52
2023-01-13T17:57:38.529Z,75.19
2023-01-13T18:01:40.436Z,75.49
2023-01-13T18:05:41.998Z,75.84
2023-01-13T18:09:43.437Z,75.02
2023-01-13T18:13:46.298Z,75.48
2023-01-13T18:17:47.722Z,75.43
2023-01-13T18:21:49.124Z,74.79
2023-01-13T18:25:50.491Z,75.15
2023-01-13T18:29:54.229Z,74.49
2023-01-13T18:33:55.742Z,74.80
2023-01-13T18:37:57.333Z,75.50
2023-01-13T18:41:58.710Z,75.99
2023-01-13T18:46:01.504Z,75.95
2023-01-13T18:50:02.949Z,76.76
2023-01-13T18:54:04.443Z,76.71
2023-01-13T18:58:05.845Z,76.91
2023-01-13T19:02:13.774Z,77.13
2023-01-13T19:06:15.176Z,77.67
2023-01-13T19:10:17.050Z,77.59
2023-01-13T19:14:19.125Z,77.77
2023-01-13T19:18:22.063Z,77.97
2023-01-13T19:22:24.937Z,78.65
2023-01-13T19:26:26.309Z,79.48
2023-01-13T19:30:27.757Z,79.86
2023-01-13T19:34:30.492Z,80.36
2023-01-13T19:38:32.113Z,81.33
2023-01-13T19:42:33.485Z,81.90
2023-01-13T19:46:34.912Z,81.33
2023-01-13T19:50:38.324Z,81.48
2023-01-13T19:54:39.710Z,81.68
2023-01-13T19:58:41.114Z,82.00
2023-01-13T20:02:42.525Z,81.56
2023-01-13T20:06:45.281Z,80.68
2023-01-13T20:10:47.748Z,80.55
2023-01-13T20:14:49.144Z,81.00
2023-01-13T20:18:50.825Z,80.16
2023-01-13T20:22:53.571Z,79.96
2023-01-13T20:26:55.263Z,80.66
2023-01-13T20:30:56.620Z,79.73
2023-01-13T20:34:57.980Z,79.94
2023-01-13T20:39:01.542Z,80.10
2023-01-13T20:43:02.912Z,81.41
2023-01-13T20:47:04.382Z,81.78
2023-01-13T20:51:05.824Z,81.99
2023-01-13T20:55:09.309Z,82.06
2023-01-13T20:59:11.115Z,80.77
2023-01-13T21:03:13.591Z,80.17
2023-01-13T21:07:16.394Z,80.54
2023-01-13T21:11:19.137Z,80.52
2023-01-13T21:15:20.630Z,80.95
2023-01-13T21:19:22.017Z,80.99
2023-01-13T21:23:23.392Z,81.15
2023-01-13T21:27:26.127Z,81.00
2023-01-13T21:31:27.873Z,80.98
2023-01-13T21:35:29.324Z,81.04
2023-01-13T21:39:30.676Z,81.12
2023-01-13T21:43:33.763Z,81.03
2023-01-13T21:47:35.128Z,81.60
2023-01-13T21:51:36.581Z,80.34
2023-01-13T21:55:37.961Z,80.80
2023-01-13T21:59:40.668Z,81.27
2023-01-13T22:03:42.072Z,81.68
2023-01-13T22:07:43.431Z,81.62
2023-01-13T22:11:44.842Z,82.02
2023-01-13T22:15:47.606Z,82.13
2023-01-13T22:19:49.511Z,81.67
2023-01-13T22:23:50.923Z,81.77
2023-01-13T22:27:52.351Z,81.67
2023-01-13T22:31:55.158Z,82.02
2023-01-13T22:35:56.561Z,81.78
2023-01-13T22:39:57.921Z,81.83
2023-01-13T22:43:59.284Z,81.16
2023-01-13T22:48:02.050Z,81.51
2023-01-13T22:52:03.616Z,81.91
2023-01-13T22:56:05.179Z,82.72
2023-01-13T23:00:07.157Z,82.63
2023-01-13T23:04:11.214Z,82.54
2023-01-13T23:08:12.723Z,82.42
2023-01-13T23:12:14.130Z,82.44
2023-01-13T23:16:16.334Z,82.64
2023-01-13T23:20:19.079Z,82.48
2023-01-13T23:24:20.448Z,82.35
2023-01-13T23:28:22.158Z,82.50
2023-01-13T23:32:23.546Z,82.87
2023-01-13T23:36:26.785Z,83.04
2023-01-13T23:40:28.142Z,83.26
2023-01-13T23:44:29.588Z,82.92
2023-01-13T23:48:31.265Z,83.19
2023-01-13T23:52:34.028Z,83.22
2023-01-13T23:56:35.426Z,82.99
